createdAt,value
2023-03-28T00:01:04.527Z,99.90
2023-03-28T00:03:36.409Z,99.90
2023-03-28T00:06:05.990Z,99.90
2023-03-28T00:08:33.083Z,99.90
2023-03-28T00:11:06.027Z,99.90
2023-03-28T00:13:33.870Z,99.90
2023-03-28T00:16:07.058Z,99.90
2023-03-28T00:18:37.568Z,99.90
2023-03-28T00:21:17.539Z,99.90
2023-03-28T00:23:44.741Z,99.90
2023-03-28T00:26:13.114Z,99.90
2023-03-28T00:28:39.923Z,99.90
2023-03-28T00:31:08.393Z,99.90
2023-03-28T00:33:35.471Z,99.90
2023-03-28T00:36:02.639Z,99.90
2023-03-28T00:38:31.387Z,99.90
2023-03-28T00:40:58.320Z,99.90
2023-03-28T00:43:43.039Z,99.90
2023-03-28T00:46:21.352Z,99.90
2023-03-28T00:49:06.042Z,99.90
2023-03-28T00:51:59.351Z,99.90
2023-03-28T00:54:30.021Z,99.90
2023-03-28T00:57:00.466Z,99.90
2023-03-28T00:59:31.105Z,99.90
2023-03-28T01:01:58.159Z,99.90
2023-03-28T01:04:33.272Z,99.90
2023-03-28T01:07:00.232Z,99.90
2023-03-28T01:09:28.172Z,99.90
2023-03-28T01:11:57.660Z,99.90
2023-03-28T01:14:27.479Z,99.90
2023-03-28T01:16:56.420Z,99.90
2023-03-28T01:19:43.211Z,99.90
2023-03-28T01:22:56.938Z,99.90
2023-03-28T01:25:55.755Z,99.90
2023-03-28T01:28:56.837Z,99.90
2023-03-28T01:32:01.129Z,99.90
2023-03-28T01:34:42.614Z,99.90
2023-03-28T01:37:28.110Z,99.90
2023-03-28T01:40:15.493Z,99.90
2023-03-28T01:42:57.536Z,99.90
2023-03-28T01:45:42.622Z,99.90
2023-03-28T01:48:17.800Z,99.90
2023-03-28T01:51:00.731Z,99.90
2023-03-28T01:53:36.595Z,99.90
2023-03-28T01:56:28.378Z,99.90
2023-03-28T01:59:03.724Z,99.90
2023-03-28T02:01:54.979Z,99.90
2023-03-28T02:04:25.173Z,99.90
2023-03-28T02:06:54.410Z,99.90
2023-03-28T02:09:24.837Z,99.90
2023-03-28T02:11:57.578Z,99.90
2023-03-28T02:14:27.869Z,99.90
2023-03-28T02:17:00.556Z,99.90
2023-03-28T02:19:30.033Z,99.90
2023-03-28T02:22:18.175Z,99.90
2023-03-28T02:24:50.695Z,99.90
2023-03-28T02:27:21.062Z,99.90
2023-03-28T02:29:49.686Z,99.90
2023-03-28T02:32:17.402Z,99.90
2023-03-28T02:34:45.843Z,99.90
2023-03-28T02:37:12.644Z,99.90
2023-03-28T02:39:48.832Z,99.90
2023-03-28T02:42:48.700Z,99.90
2023-03-28T02:45:51.653Z,99.90
2023-03-28T02:48:36.805Z,99.90
2023-03-28T02:51:25.279Z,99.90
2023-03-28T02:54:22.328Z,99.90
2023-03-28T02:57:02.249Z,99.90
2023-03-28T02:59:55.454Z,99.90
2023-03-28T03:02:22.462Z,99.90
2023-03-28T03:04:57.638Z,99.90
2023-03-28T03:07:25.510Z,99.90
2023-03-28T03:09:53.768Z,99.90
2023-03-28T03:12:21.253Z,99.90
2023-03-28T03:14:51.064Z,99.90
2023-03-28T03:17:18.167Z,99.90
2023-03-28T03:19:45.019Z,99.90
2023-03-28T03:22:12.265Z,99.90
2023-03-28T03:24:48.623Z,99.90
2023-03-28T03:27:15.316Z,99.90
2023-03-28T03:29:42.374Z,99.90
2023-03-28T03:32:09.048Z,99.90
2023-03-28T03:34:37.090Z,99.90
2023-03-28T03:37:09.591Z,99.90
2023-03-28T03:39:36.648Z,99.90
2023-03-28T03:42:03.978Z,99.90
2023-03-28T03:44:31.088Z,99.90
2023-03-28T03:46:58.211Z,99.90
2023-03-28T03:49:24.909Z,99.90
2023-03-28T03:51:52.172Z,99.90
2023-03-28T03:54:19.033Z,99.90
2023-03-28T03:56:46.306Z,99.90
2023-03-28T03:59:13.263Z,99.90
2023-03-28T04:01:40.076Z,99.90
2023-03-28T04:04:09.992Z,99.90
2023-03-28T04:06:38.857Z,99.90
2023-03-28T04:09:08.018Z,99.90
2023-03-28T04:11:35.962Z,99.90
2023-03-28T04:14:02.929Z,99.90
2023-03-28T04:16:29.806Z,99.90
2023-03-28T04:19:08.355Z,99.90
2023-03-28T04:21:35.589Z,99.90
2023-03-28T04:24:02.579Z,99.90
2023-03-28T04:26:30.092Z,99.90
2023-03-28T04:28:57.159Z,99.90
2023-03-28T04:31:29.865Z,99.90
2023-03-28T04:33:57.597Z,99.90
2023-03-28T04:36:26.003Z,99.90
2023-03-28T04:38:53.118Z,99.90
2023-03-28T04:41:20.205Z,99.90
2023-03-28T04:43:46.864Z,99.90
2023-03-28T04:46:13.838Z,99.90
2023-03-28T04:48:41.221Z,99.90
2023-03-28T04:51:08.516Z,99.90
2023-03-28T04:53:36.462Z,99.90
2023-03-28T04:56:03.581Z,99.90
2023-03-28T04:58:30.345Z,99.90
2023-03-28T05:00:57.097Z,99.90
2023-03-28T05:03:25.012Z,99.90
2023-03-28T05:05:53.342Z,99.90
2023-03-28T05:08:26.507Z,99.90
2023-03-28T05:10:55.100Z,99.90
2023-03-28T05:13:22.150Z,99.90
2023-03-28T05:15:49.650Z,99.90
2023-03-28T05:18:16.333Z,99.90
2023-03-28T05:20:43.858Z,99.90
2023-03-28T05:23:10.766Z,99.90
2023-03-28T05:25:37.472Z,99.90
2023-03-28T05:28:04.827Z,99.90
2023-03-28T05:30:31.643Z,99.90
2023-03-28T05:32:59.815Z,99.90
2023-03-28T05:35:27.136Z,99.90
2023-03-28T05:37:53.882Z,99.90
2023-03-28T05:40:20.947Z,99.90
2023-03-28T05:42:47.723Z,99.90
2023-03-28T05:45:14.789Z,99.90
2023-03-28T05:47:41.810Z,99.90
2023-03-28T05:50:09.639Z,99.90
2023-03-28T05:52:36.406Z,99.90
2023-03-28T05:55:03.463Z,99.90
2023-03-28T05:57:30.170Z,99.90
2023-03-28T05:59:57.185Z,99.90
2023-03-28T06:02:24.715Z,99.90
2023-03-28T06:04:53.723Z,99.90
2023-03-28T06:07:35.192Z,99.90
2023-03-28T06:10:08.590Z,99.90
2023-03-28T06:12:35.823Z,99.90
2023-03-28T06:15:02.588Z,99.90
2023-03-28T06:17:29.538Z,99.90
2023-03-28T06:19:56.653Z,99.90
2023-03-28T06:22:23.643Z,99.90
2023-03-28T06:24:50.711Z,99.90
2023-03-28T06:27:17.436Z,99.90
2023-03-28T06:29:44.236Z,99.90
2023-03-28T06:32:12.884Z,99.90
2023-03-28T06:34:39.661Z,99.90
2023-03-28T06:37:06.510Z,99.90
2023-03-28T06:39:33.217Z,99.90
2023-03-28T06:42:02.472Z,99.90
2023-03-28T06:44:31.078Z,99.90
2023-03-28T06:46:57.917Z,99.90
2023-03-28T06:49:24.958Z,99.90
2023-03-28T06:51:51.689Z,99.90
2023-03-28T06:54:18.712Z,99.90
2023-03-28T06:56:45.619Z,99.90
2023-03-28T06:59:12.400Z,99.90
2023-03-28T07:01:39.185Z,99.90
2023-03-28T07:04:06.232Z,99.90
2023-03-28T07:06:33.019Z,99.90
2023-03-28T07:08:59.845Z,99.90
2023-03-28T07:11:26.997Z,99.90
2023-03-28T07:13:53.798Z,99.90
2023-03-28T07:16:20.968Z,99.90
2023-03-28T07:18:48.147Z,99.90
2023-03-28T07:21:17.110Z,99.90
2023-03-28T07:23:47.416Z,99.90
2023-03-28T07:26:15.494Z,99.90
2023-03-28T07:28:42.249Z,99.90
2023-03-28T07:31:09.398Z,99.90
2023-03-28T07:33:38.255Z,99.90
2023-03-28T07:36:11.892Z,99.90
2023-03-28T07:38:38.599Z,99.90
2023-03-28T07:41:05.552Z,99.90
2023-03-28T07:43:32.558Z,99.90
2023-03-28T07:46:11.179Z,99.90
2023-03-28T07:48:38.427Z,99.90
2023-03-28T07:51:06.684Z,99.90
2023-03-28T07:53:34.251Z,99.90
2023-03-28T07:56:01.147Z,99.90
2023-03-28T07:58:28.132Z,99.90
2023-03-28T08:00:56.304Z,99.90
2023-03-28T08:03:23.773Z,99.90
2023-03-28T08:05:53.843Z,99.90
2023-03-28T08:08:21.617Z,99.90
2023-03-28T08:10:51.779Z,99.90
2023-03-28T08:13:21.121Z,99.90
2023-03-28T08:15:57.070Z,99.90
2023-03-28T08:18:26.189Z,99.90
2023-03-28T08:20:59.856Z,99.90
2023-03-28T08:23:27.713Z,99.90
2023-03-28T08:26:05.199Z,99.90
2023-03-28T08:28:36.418Z,99.90
2023-03-28T08:31:14.656Z,99.90
2023-03-28T08:33:43.556Z,99.90
2023-03-28T08:36:14.651Z,99.90
2023-03-28T08:38:46.592Z,99.90
2023-03-28T08:41:51.180Z,99.90
2023-03-28T08:44:23.771Z,99.90
2023-03-28T08:46:56.009Z,99.90
2023-03-28T08:49:23.238Z,99.90
2023-03-28T08:51:59.434Z,99.90
2023-03-28T08:54:47.543Z,99.90
2023-03-28T08:57:19.363Z,99.90
2023-03-28T08:59:59.985Z,99.90
2023-03-28T09:02:28.526Z,99.90
2023-03-28T09:05:08.187Z,99.90
2023-03-28T09:08:25.752Z,99.90
2023-03-28T09:11:15.813Z,99.90
2023-03-28T09:14:01.215Z,99.90
2023-03-28T09:16:51.180Z,99.90
2023-03-28T09:19:21.544Z,99.90
2023-03-28T09:22:15.130Z,99.90
2023-03-28T09:25:07.503Z,99.90
2023-03-28T09:27:37.958Z,99.90
2023-03-28T09:30:20.817Z,99.90
2023-03-28T09:32:49.462Z,99.90
2023-03-28T09:35:52.865Z,99.90
2023-03-28T09:38:26.219Z,99.90
2023-03-28T09:40:57.475Z,95.20
2023-03-28T09:43:35.051Z,95.90
2023-03-28T09:46:11.255Z,96.90
2023-03-28T09:48:40.072Z,95.70
2023-03-28T09:51:14.657Z,91.10
2023-03-28T09:53:42.529Z,91.60
2023-03-28T09:56:35.238Z,94.30
2023-03-28T09:59:04.374Z,95.90
2023-03-28T10:01:41.041Z,98.80
2023-03-28T10:04:19.982Z,99.90
2023-03-28T10:07:16.801Z,99.90
2023-03-28T10:09:51.296Z,99.90
2023-03-28T10:12:22.722Z,99.30
2023-03-28T10:14:49.650Z,94.70
2023-03-28T10:17:28.019Z,95.20
2023-03-28T10:20:03.295Z,93.90
2023-03-28T10:22:35.554Z,95.10
2023-03-28T10:25:07.325Z,97.80
2023-03-28T10:27:36.117Z,99.00
2023-03-28T10:30:31.951Z,94.80
2023-03-28T10:33:09.506Z,91.90
2023-03-28T10:35:41.779Z,87.00
2023-03-28T10:38:19.897Z,90.40
2023-03-28T10:40:53.766Z,84.60
2023-03-28T10:43:20.524Z,76.70
2023-03-28T10:45:51.102Z,78.10
2023-03-28T10:48:21.564Z,75.40
2023-03-28T10:50:54.057Z,74.10
2023-03-28T10:53:49.456Z,76.10
2023-03-28T10:56:30.626Z,82.10
2023-03-28T10:59:37.349Z,90.60
2023-03-28T11:02:07.310Z,93.70
2023-03-28T11:04:56.573Z,96.70
2023-03-28T11:07:30.840Z,95.30
2023-03-28T11:10:23.475Z,94.60
2023-03-28T11:13:04.185Z,96.80
2023-03-28T11:15:39.217Z,94.40
2023-03-28T11:18:21.434Z,86.30
2023-03-28T11:21:00.870Z,81.30
2023-03-28T11:23:28.968Z,83.70
2023-03-28T11:26:20.787Z,87.90
2023-03-28T11:29:14.850Z,88.40
2023-03-28T11:31:57.318Z,81.20
2023-03-28T11:34:33.415Z,66.10
2023-03-28T11:37:03.539Z,57.10
2023-03-28T11:39:33.403Z,55.10
2023-03-28T11:42:06.274Z,56.30
2023-03-28T11:45:02.752Z,56.30
2023-03-28T11:47:43.184Z,55.50
2023-03-28T11:50:25.031Z,57.60
2023-03-28T11:53:06.961Z,63.70
2023-03-28T11:55:43.172Z,66.90
2023-03-28T11:58:26.546Z,66.60
2023-03-28T12:01:05.027Z,70.70
2023-03-28T12:04:09.651Z,70.30
2023-03-28T12:07:09.227Z,72.60
2023-03-28T12:10:08.803Z,70.50
2023-03-28T12:13:01.797Z,62.60
2023-03-28T12:15:41.399Z,56.30
2023-03-28T12:18:17.085Z,50.80
2023-03-28T12:21:07.782Z,55.60
2023-03-28T12:23:39.703Z,58.20
2023-03-28T12:26:06.597Z,62.60
2023-03-28T12:28:41.544Z,64.10
2023-03-28T12:32:05.562Z,65.10
2023-03-28T12:34:40.015Z,68.30
2023-03-28T12:37:27.562Z,68.90
2023-03-28T12:40:28.077Z,71.20
2023-03-28T12:42:57.593Z,72.50
2023-03-28T12:45:33.166Z,73.80
2023-03-28T12:48:06.732Z,64.40
2023-03-28T12:50:46.913Z,62.50
2023-03-28T12:53:14.995Z,63.90
2023-03-28T12:55:48.193Z,61.60
2023-03-28T12:58:24.438Z,63.10
2023-03-28T13:01:08.392Z,63.30
2023-03-28T13:03:53.999Z,64.00
2023-03-28T13:06:26.644Z,65.60
2023-03-28T13:09:19.529Z,67.30
2023-03-28T13:12:07.637Z,67.30
2023-03-28T13:14:39.027Z,67.40
2023-03-28T13:17:27.454Z,64.10
2023-03-28T13:20:15.937Z,59.60
2023-03-28T13:22:50.299Z,54.50
2023-03-28T13:25:26.211Z,51.00
2023-03-28T13:27:57.196Z,50.20
2023-03-28T13:30:27.676Z,47.70
2023-03-28T13:33:02.113Z,47.50
2023-03-28T13:35:37.986Z,49.20
2023-03-28T13:38:15.111Z,48.40
2023-03-28T13:40:57.003Z,50.40
2023-03-28T13:43:42.743Z,51.00
2023-03-28T13:46:19.834Z,56.20
2023-03-28T13:49:02.551Z,58.00
2023-03-28T13:52:04.981Z,59.70
2023-03-28T13:54:32.619Z,61.00
2023-03-28T13:57:08.501Z,63.00
2023-03-28T13:59:39.546Z,64.20
2023-03-28T14:02:18.613Z,63.70
2023-03-28T14:05:03.322Z,63.30
2023-03-28T14:07:30.757Z,63.40
2023-03-28T14:09:58.302Z,64.50
2023-03-28T14:12:28.626Z,62.60
2023-03-28T14:14:58.470Z,64.80
2023-03-28T14:17:29.204Z,66.10
2023-03-28T14:20:05.998Z,67.30
2023-03-28T14:22:43.181Z,67.50
2023-03-28T14:25:21.624Z,66.00
2023-03-28T14:27:54.900Z,65.80
2023-03-28T14:30:37.988Z,64.80
2023-03-28T14:33:13.495Z,64.70
2023-03-28T14:35:48.408Z,64.40
2023-03-28T14:38:28.188Z,64.50
2023-03-28T14:40:55.898Z,65.40
2023-03-28T14:43:32.118Z,67.30
2023-03-28T14:46:04.714Z,69.10
2023-03-28T14:48:32.260Z,68.50
2023-03-28T14:51:03.288Z,67.00
2023-03-28T14:53:35.632Z,66.00
2023-03-28T14:56:12.994Z,64.00
2023-03-28T14:58:42.451Z,65.80
2023-03-28T15:01:13.580Z,64.50
2023-03-28T15:03:43.751Z,66.50
2023-03-28T15:06:16.982Z,65.40
2023-03-28T15:08:45.075Z,66.00
2023-03-28T15:11:23.632Z,68.10
2023-03-28T15:14:02.098Z,68.70
2023-03-28T15:16:30.198Z,67.40
2023-03-28T15:18:58.839Z,68.00
2023-03-28T15:21:26.487Z,68.00
2023-03-28T15:24:19.529Z,68.40
2023-03-28T15:30:33.071Z,66.70
2023-03-28T15:33:03.294Z,67.20
2023-03-28T15:35:49.250Z,67.80
2023-03-28T15:38:20.510Z,68.30
2023-03-28T15:40:52.662Z,68.20
2023-03-28T15:43:39.581Z,68.90
2023-03-28T15:46:14.685Z,70.00
2023-03-28T15:48:42.706Z,69.00
2023-03-28T15:51:15.648Z,69.80
2023-03-28T15:53:43.230Z,68.70
2023-03-28T15:56:37.351Z,69.50
2023-03-28T15:59:11.838Z,68.70
2023-03-28T16:01:38.841Z,69.50
2023-03-28T16:04:16.209Z,70.40
2023-03-28T16:06:45.099Z,72.40
2023-03-28T16:09:23.256Z,72.40
2023-03-28T16:12:00.178Z,72.70
2023-03-28T16:14:27.090Z,73.80
2023-03-28T16:16:56.004Z,75.10
2023-03-28T16:19:28.255Z,75.10
2023-03-28T16:21:54.918Z,74.00
2023-03-28T16:24:21.798Z,74.20
2023-03-28T16:26:48.500Z,74.50
2023-03-28T16:29:15.358Z,75.60
2023-03-28T16:31:42.942Z,75.80
2023-03-28T16:34:13.983Z,75.80
2023-03-28T16:36:40.661Z,77.10
2023-03-28T16:39:08.323Z,77.70
2023-03-28T16:41:35.991Z,78.70
2023-03-28T16:44:03.983Z,78.80
2023-03-28T16:46:31.678Z,79.70
2023-03-28T16:48:58.536Z,79.40
2023-03-28T16:51:25.515Z,79.40
2023-03-28T16:53:52.286Z,79.30
2023-03-28T16:56:19.056Z,80.20
2023-03-28T16:58:45.873Z,82.40
2023-03-28T17:01:19.479Z,84.00
2023-03-28T17:03:47.391Z,86.00
2023-03-28T17:06:16.378Z,86.80
2023-03-28T17:08:43.951Z,88.20
2023-03-28T17:11:12.349Z,90.10
2023-03-28T17:13:40.860Z,90.90
2023-03-28T17:16:09.176Z,91.80
2023-03-28T17:18:36.551Z,92.10
2023-03-28T17:21:12.717Z,91.80
2023-03-28T17:23:41.302Z,93.20
2023-03-28T17:26:10.151Z,94.60
2023-03-28T17:28:39.214Z,95.70
2023-03-28T17:31:11.173Z,98.10
2023-03-28T17:33:38.612Z,99.80
2023-03-28T17:36:22.445Z,99.90
2023-03-28T17:38:50.990Z,99.90
2023-03-28T17:41:18.736Z,99.90
2023-03-28T17:43:45.701Z,99.90
2023-03-28T17:46:12.907Z,99.90
2023-03-28T17:48:41.092Z,99.90
2023-03-28T17:51:10.248Z,99.90
2023-03-28T17:53:39.733Z,99.90
2023-03-28T17:56:07.166Z,99.90
2023-03-28T17:58:34.480Z,99.90
2023-03-28T18:01:01.407Z,99.90
2023-03-28T18:03:28.574Z,99.90
2023-03-28T18:06:00.382Z,99.90
2023-03-28T18:08:28.668Z,99.90
2023-03-28T18:11:00.877Z,99.90
2023-03-28T18:13:27.615Z,99.90
2023-03-28T18:15:54.335Z,99.90
2023-03-28T18:18:21.039Z,99.90
2023-03-28T18:20:48.679Z,99.90
2023-03-28T18:23:15.369Z,99.90
2023-03-28T18:25:52.159Z,99.90
2023-03-28T18:28:23.449Z,99.90
2023-03-28T18:30:51.207Z,99.90
2023-03-28T18:33:18.815Z,99.90
2023-03-28T18:35:46.871Z,99.90
2023-03-28T18:38:13.989Z,99.90
2023-03-28T18:40:41.137Z,99.90
2023-03-28T18:43:09.273Z,99.90
2023-03-28T18:45:36.961Z,99.90
2023-03-28T18:48:04.057Z,99.90
2023-03-28T18:50:31.403Z,99.90
2023-03-28T18:52:58.436Z,99.90
2023-03-28T18:55:25.504Z,99.90
2023-03-28T18:57:52.802Z,99.90
2023-03-28T19:00:20.658Z,99.90
2023-03-28T19:02:49.217Z,99.90
2023-03-28T19:05:16.851Z,99.90
2023-03-28T19:07:45.021Z,99.90
2023-03-28T19:10:13.441Z,99.90
2023-03-28T19:12:41.707Z,99.90
2023-03-28T19:15:11.013Z,99.90
2023-03-28T19:17:38.862Z,99.90
2023-03-28T19:20:13.753Z,99.90
2023-03-28T19:22:41.562Z,99.90
2023-03-28T19:25:09.380Z,99.90
2023-03-28T19:27:37.397Z,99.90
2023-03-28T19:30:05.452Z,99.90
2023-03-28T19:32:32.915Z,99.90
2023-03-28T19:34:59.941Z,99.90
2023-03-28T19:37:26.929Z,99.90
2023-03-28T19:39:53.931Z,99.90
2023-03-28T19:42:21.414Z,99.90
2023-03-28T19:44:48.207Z,99.90
2023-03-28T19:47:15.107Z,99.90
2023-03-28T19:49:42.786Z,99.90
2023-03-28T19:52:09.997Z,99.90
2023-03-28T19:54:37.733Z,99.90
2023-03-28T19:57:08.120Z,99.90
2023-03-28T19:59:35.319Z,99.90
2023-03-28T20:02:02.130Z,99.90
2023-03-28T20:04:29.122Z,99.90
2023-03-28T20:06:57.096Z,99.90
2023-03-28T20:09:25.150Z,99.90
2023-03-28T20:11:53.152Z,99.90
2023-03-28T20:14:24.423Z,99.90
2023-03-28T20:20:28.641Z,99.90
2023-03-28T20:22:58.065Z,99.90
2023-03-28T20:25:26.114Z,99.90
2023-03-28T20:27:52.752Z,99.90
2023-03-28T20:30:19.782Z,99.90
2023-03-28T20:32:49.394Z,99.90
2023-03-28T20:35:16.453Z,99.90
2023-03-28T20:37:43.627Z,99.90
2023-03-28T20:40:10.853Z,99.90
2023-03-28T20:42:41.638Z,99.90
2023-03-28T20:45:14.102Z,99.90
2023-03-28T20:47:41.705Z,99.90
2023-03-28T20:50:09.633Z,99.90
2023-03-28T20:52:37.896Z,99.90
2023-03-28T20:55:08.747Z,99.90
2023-03-28T20:57:40.780Z,99.90
2023-03-28T21:00:12.619Z,99.90
2023-03-28T21:02:41.270Z,99.90
2023-03-28T21:05:08.548Z,99.90
2023-03-28T21:07:36.301Z,99.90
2023-03-28T21:10:53.368Z,99.90
2023-03-28T21:13:22.892Z,99.90
2023-03-28T21:15:52.845Z,99.90
2023-03-28T21:18:19.744Z,99.90
2023-03-28T21:20:47.084Z,99.90
2023-03-28T21:23:14.310Z,99.90
2023-03-28T21:25:40.932Z,99.90
2023-03-28T21:28:08.104Z,99.90
2023-03-28T21:30:34.752Z,99.90
2023-03-28T21:33:03.898Z,99.90
2023-03-28T21:35:31.168Z,99.90
2023-03-28T21:37:57.802Z,99.90
2023-03-28T21:40:24.463Z,99.90
2023-03-28T21:42:51.542Z,99.90
2023-03-28T21:45:18.426Z,99.90
2023-03-28T21:47:45.304Z,99.90
2023-03-28T21:50:14.453Z,99.90
2023-03-28T21:52:41.809Z,99.90
2023-03-28T21:55:09.263Z,99.90
2023-03-28T21:57:36.956Z,99.90
2023-03-28T22:00:14.749Z,99.90
2023-03-28T22:02:42.752Z,99.90
2023-03-28T22:05:22.069Z,99.90
2023-03-28T22:07:55.821Z,99.90
2023-03-28T22:10:26.713Z,99.90
2023-03-28T22:12:54.131Z,99.90
2023-03-28T22:15:20.915Z,99.90
2023-03-28T22:17:47.853Z,99.90
2023-03-28T22:20:14.834Z,99.90
2023-03-28T22:22:44.999Z,99.90
2023-03-28T22:25:12.665Z,99.90
2023-03-28T22:27:39.832Z,99.90
2023-03-28T22:30:11.119Z,99.90
2023-03-28T22:32:39.010Z,99.90
2023-03-28T22:35:06.968Z,99.90
2023-03-28T22:37:34.224Z,99.90
2023-03-28T22:40:01.012Z,99.90
2023-03-28T22:42:28.879Z,99.90
2023-03-28T22:44:55.741Z,99.90
2023-03-28T22:47:30.225Z,99.90
2023-03-28T22:49:58.407Z,99.90
2023-03-28T22:52:31.513Z,99.90
2023-03-28T22:54:58.627Z,99.90
2023-03-28T22:57:25.427Z,99.90
2023-03-28T22:59:53.099Z,99.90
2023-03-28T23:02:20.043Z,99.90
2023-03-28T23:04:47.152Z,99.90
2023-03-28T23:07:14.500Z,99.90
2023-03-28T23:09:44.250Z,99.90
2023-03-28T23:12:11.169Z,99.90
2023-03-28T23:14:37.780Z,99.90
2023-03-28T23:17:04.488Z,99.90
2023-03-28T23:19:32.214Z,99.90
2023-03-28T23:21:59.626Z,99.90
2023-03-28T23:24:37.198Z,99.90
2023-03-28T23:27:05.153Z,99.90
2023-03-28T23:29:31.842Z,99.90
2023-03-28T23:31:59.058Z,99.90
2023-03-28T23:34:26.413Z,99.90
2023-03-28T23:36:57.249Z,99.90
2023-03-28T23:39:24.539Z,99.90
2023-03-28T23:41:51.372Z,99.90
2023-03-28T23:44:18.339Z,99.90
2023-03-28T23:46:45.735Z,99.90
2023-03-28T23:49:12.393Z,99.90
2023-03-28T23:51:39.341Z,99.90
2023-03-28T23:54:06.103Z,99.90
2023-03-28T23:56:32.755Z,99.90
2023-03-28T23:58:59.779Z,99.90
